Leuchars, United Kingdom
Current Conditions -  °F | °C
As of 4:19 PM on Tuesday 21 Oct 2014 (Local Time) from EGQL Reporting Station
Drizzle Drizzle  
Wind Chill:   Ceiling: Unl
Heat Index:   Visibility: 4mi
Dew Point:   Wind: 21mph
Humidity: 71%   Direction: 300°WNW
Pressure: 29.62"   Gusts: 35mph
Location:  56.38°N, 2.89°W
Report Text: EGQL 211519Z 30018G30KT 7000 -DZ SCT014 SCT080 08/03 Q1003 GRN
Loading
Personal Weather Stations






























Interactive Weather Map
Tropical Storm Tracking
New forecast layout! Learn more

10-Day Weather Forecast

Advertisements
Track Severe Weather on mobile